Time;durP1;ratioP1;P1;durP2;ratioP2;P2;SDS_P1;SDS_P2;PMS_P1;PMS_P2;Temp;Humidity;BMP_temperature;BMP_pressure;BME280_temperature;BME280_humidity;BME280_pressure;Samples;Min_cycle;Max_cycle;Signal;HPM_P1;HPM_P2
2021/07/31 00:00:44;;;;;;;7.50;6.60;;;20.30;99.90;;;;;;5072935;28;20214;-69
2021/07/31 00:03:10;;;;;;;7.03;5.77;;;20.30;99.90;;;;;;5072721;28;20183;-68
2021/07/31 00:05:35;;;;;;;6.53;5.93;;;20.30;99.90;;;;;;5072808;28;20181;-68
2021/07/31 00:08:00;;;;;;;9.20;6.40;;;20.30;99.90;;;;;;5072467;28;20169;-68
2021/07/31 00:10:26;;;;;;;6.87;5.87;;;20.30;99.90;;;;;;5072746;28;20268;-68
2021/07/31 00:12:51;;;;;;;5.50;4.70;;;20.20;99.90;;;;;;5072717;28;20607;-68
2021/07/31 00:15:17;;;;;;;12.87;6.00;;;20.20;99.90;;;;;;5072470;28;20543;-68
2021/07/31 00:17:42;;;;;;;7.03;6.07;;;20.20;99.90;;;;;;5072553;28;20172;-68
2021/07/31 00:20:08;;;;;;;6.40;5.60;;;20.10;99.90;;;;;;5072460;28;20706;-68
2021/07/31 00:22:33;;;;;;;7.17;5.43;;;20.20;99.90;;;;;;5072095;28;20173;-68
2021/07/31 00:24:59;;;;;;;7.47;6.77;;;20.20;99.90;;;;;;5072396;28;20171;-68
2021/07/31 00:27:25;;;;;;;6.23;5.27;;;20.10;99.90;;;;;;5072345;28;20669;-69
2021/07/31 00:29:51;;;;;;;13.53;6.23;;;20.10;99.90;;;;;;5072807;28;20578;-69
2021/07/31 00:32:17;;;;;;;5.30;4.80;;;20.10;99.90;;;;;;5072333;28;20409;-69
2021/07/31 00:34:42;;;;;;;7.00;4.53;;;20.10;99.90;;;;;;5072058;28;20171;-69
2021/07/31 00:37:08;;;;;;;6.77;5.60;;;20.10;99.90;;;;;;5071403;28;20220;-69
2021/07/31 00:39:38;;;;;;;7.53;5.33;;;20.10;99.90;;;;;;5072184;28;20197;-69
2021/07/31 00:42:05;;;;;;;6.43;4.60;;;20.10;99.90;;;;;;5072472;28;20173;-69
2021/07/31 00:44:30;;;;;;;7.03;4.73;;;20.00;99.90;;;;;;5072118;28;20399;-69
2021/07/31 00:46:56;;;;;;;6.70;5.10;;;20.00;99.90;;;;;;5071933;28;20399;-69
2021/07/31 00:49:21;;;;;;;6.30;4.53;;;20.00;99.90;;;;;;5071879;28;20197;-69
2021/07/31 00:51:47;;;;;;;7.70;4.83;;;20.00;99.90;;;;;;5071923;28;20197;-68
2021/07/31 00:54:12;;;;;;;7.50;4.60;;;20.00;99.90;;;;;;5072030;28;20168;-69
2021/07/31 00:56:39;;;;;;;4.70;4.30;;;20.00;99.90;;;;;;5071975;28;20199;-69
2021/07/31 00:59:05;;;;;;;6.60;4.73;;;20.00;99.90;;;;;;5071613;28;20159;-68
2021/07/31 01:01:30;;;;;;;7.50;4.27;;;20.00;99.90;;;;;;5071596;28;20498;-70
2021/07/31 01:03:56;;;;;;;5.00;4.50;;;19.90;99.90;;;;;;5071574;28;20198;-70
2021/07/31 01:06:21;;;;;;;6.20;3.97;;;19.90;99.90;;;;;;5071443;28;20173;-69
2021/07/31 01:08:47;;;;;;;5.83;4.60;;;19.90;99.90;;;;;;5071495;28;20191;-70
2021/07/31 01:11:13;;;;;;;4.63;4.23;;;19.80;99.90;;;;;;5071599;28;20666;-69
2021/07/31 01:13:39;;;;;;;5.67;4.80;;;19.80;99.90;;;;;;5071749;28;20219;-70
2021/07/31 01:16:07;;;;;;;4.47;4.07;;;19.80;99.90;;;;;;5071438;28;20250;-70
2021/07/31 01:18:33;;;;;;;4.57;4.17;;;19.70;99.90;;;;;;5071409;28;20412;-70
2021/07/31 01:20:59;;;;;;;4.60;4.20;;;19.70;99.90;;;;;;5071201;28;20465;-70
2021/07/31 01:23:24;;;;;;;5.87;4.63;;;19.70;99.90;;;;;;5071485;28;20431;-69
2021/07/31 01:25:50;;;;;;;5.63;4.27;;;19.70;99.90;;;;;;5071556;28;20177;-68
2021/07/31 01:28:16;;;;;;;4.43;4.03;;;19.70;99.90;;;;;;5071555;28;20179;-68
2021/07/31 01:30:41;;;;;;;5.03;4.47;;;19.70;99.90;;;;;;5071682;28;20278;-69
2021/07/31 01:33:07;;;;;;;6.77;5.03;;;19.70;99.90;;;;;;5071476;28;20200;-69
2021/07/31 01:35:32;;;;;;;8.20;4.70;;;19.80;99.90;;;;;;5071216;28;20201;-70
2021/07/31 01:37:58;;;;;;;5.73;4.60;;;19.80;99.90;;;;;;5071259;28;20573;-69
2021/07/31 01:40:23;;;;;;;5.53;3.80;;;19.80;99.90;;;;;;5071199;28;20289;-69
2021/07/31 01:42:49;;;;;;;5.13;4.30;;;19.90;99.90;;;;;;5071398;28;20170;-69
2021/07/31 01:45:15;;;;;;;5.80;4.23;;;19.90;99.90;;;;;;5071169;28;20201;-69
2021/07/31 01:47:44;;;;;;;5.40;3.80;;;19.90;99.90;;;;;;5073268;28;20168;-69
2021/07/31 01:50:10;;;;;;;4.30;3.90;;;19.90;99.90;;;;;;5074949;28;20200;-69
2021/07/31 01:52:35;;;;;;;3.67;3.37;;;19.90;99.90;;;;;;5082171;28;20792;-69
2021/07/31 01:55:00;;;;;;;3.87;3.57;;;20.00;99.90;;;;;;5095241;28;20178;-68
2021/07/31 01:57:26;;;;;;;4.00;3.67;;;20.00;99.90;;;;;;5095151;28;20253;-69
2021/07/31 01:59:51;;;;;;;3.73;3.30;;;19.90;99.90;;;;;;5095182;28;20197;-69
2021/07/31 02:02:17;;;;;;;3.57;3.30;;;19.90;99.90;;;;;;5095044;28;20224;-69
2021/07/31 02:04:42;;;;;;;6.20;4.10;;;19.90;99.90;;;;;;5095123;28;20178;-69
2021/07/31 02:07:09;;;;;;;3.90;3.53;;;19.80;99.90;;;;;;5095256;28;20555;-69
2021/07/31 02:09:34;;;;;;;4.00;3.70;;;19.80;99.90;;;;;;5095080;28;20612;-69
2021/07/31 02:12:00;;;;;;;3.87;3.50;;;19.70;99.90;;;;;;5094951;28;20484;-69
2021/07/31 02:14:25;;;;;;;5.13;3.90;;;19.70;99.90;;;;;;5094890;28;20195;-69
2021/07/31 02:16:51;;;;;;;7.40;4.50;;;19.70;99.90;;;;;;5095067;28;20166;-69
2021/07/31 02:19:16;;;;;;;7.70;3.80;;;19.70;99.90;;;;;;5094966;28;20705;-67
2021/07/31 02:21:42;;;;;;;4.37;3.13;;;19.70;99.90;;;;;;5094547;28;20183;-68
2021/07/31 02:24:07;;;;;;;5.03;3.60;;;19.70;99.90;;;;;;5094940;28;20162;-68
2021/07/31 02:26:33;;;;;;;4.77;4.30;;;19.90;99.90;;;;;;5094910;28;20260;-68
2021/07/31 02:28:58;;;;;;;5.63;3.43;;;19.90;99.90;;;;;;5095100;28;20170;-68
2021/07/31 02:31:24;;;;;;;4.40;4.00;;;19.90;99.90;;;;;;5094488;28;20193;-68
2021/07/31 02:33:50;;;;;;;4.03;3.57;;;20.00;99.90;;;;;;5094985;28;20174;-68
2021/07/31 02:36:15;;;;;;;5.17;4.53;;;19.90;99.90;;;;;;5094812;28;20174;-68
2021/07/31 02:38:41;;;;;;;4.13;3.80;;;19.90;99.90;;;;;;5094502;28;20171;-68
2021/07/31 02:41:06;;;;;;;6.00;4.30;;;19.80;99.90;;;;;;5094327;28;20237;-68
2021/07/31 02:43:32;;;;;;;6.77;3.83;;;19.80;99.90;;;;;;5094403;28;20164;-69
2021/07/31 02:46:08;;;;;;;7.37;4.70;;;19.80;99.90;;;;;;5094511;28;20249;-68
2021/07/31 02:48:36;;;;;;;4.00;3.50;;;19.90;99.90;;;;;;5094149;28;20196;-68
2021/07/31 02:51:03;;;;;;;4.57;3.77;;;19.80;99.90;;;;;;5094421;28;20509;-68
2021/07/31 02:53:29;;;;;;;3.87;3.57;;;19.80;99.90;;;;;;5094373;28;20435;-68
2021/07/31 02:55:54;;;;;;;4.30;3.90;;;19.70;99.90;;;;;;5094459;28;20450;-68
2021/07/31 02:58:20;;;;;;;7.90;3.93;;;19.70;99.90;;;;;;5093384;28;20173;-68
2021/07/31 03:00:45;;;;;;;4.40;2.80;;;19.70;99.90;;;;;;5094247;28;20195;-68
2021/07/31 03:03:11;;;;;;;2.90;2.70;;;19.70;99.90;;;;;;5094327;28;20659;-68
2021/07/31 03:05:36;;;;;;;3.63;2.93;;;19.70;99.90;;;;;;5094837;28;20236;-68
2021/07/31 03:08:02;;;;;;;4.23;3.73;;;19.60;99.90;;;;;;5094218;28;20202;-68
2021/07/31 03:10:27;;;;;;;6.13;3.53;;;19.60;99.90;;;;;;5094213;28;20194;-68
2021/07/31 03:12:53;;;;;;;3.90;3.00;;;19.60;99.90;;;;;;5094061;28;20174;-69
2021/07/31 03:15:18;;;;;;;3.50;2.93;;;19.60;99.90;;;;;;5094183;28;20637;-68
2021/07/31 03:17:44;;;;;;;3.53;3.20;;;19.60;99.90;;;;;;5094080;28;20250;-70
2021/07/31 03:20:10;;;;;;;3.60;3.30;;;19.50;99.90;;;;;;5094062;28;20218;-68
2021/07/31 03:22:35;;;;;;;3.60;3.30;;;19.50;99.90;;;;;;5094134;28;20167;-68
2021/07/31 03:25:01;;;;;;;3.43;3.00;;;19.50;99.90;;;;;;5094200;28;21045;-69
2021/07/31 03:27:27;;;;;;;6.10;3.23;;;19.50;99.90;;;;;;5093670;28;20188;-69
2021/07/31 03:29:52;;;;;;;3.47;3.17;;;19.40;99.90;;;;;;5093905;28;20259;-69
2021/07/31 03:32:17;;;;;;;3.70;3.40;;;19.40;99.90;;;;;;5093770;28;20201;-68
2021/07/31 03:34:43;;;;;;;3.43;3.10;;;19.40;99.90;;;;;;5093988;28;20171;-69
2021/07/31 03:37:08;;;;;;;2.77;2.57;;;19.40;99.90;;;;;;5093750;28;20221;-69
2021/07/31 03:39:34;;;;;;;4.70;3.33;;;19.30;99.90;;;;;;5093680;28;20282;-68
2021/07/31 03:41:59;;;;;;;7.23;3.63;;;19.30;99.90;;;;;;5093660;28;20173;-68
2021/07/31 03:44:25;;;;;;;3.10;2.80;;;19.30;99.90;;;;;;5093557;28;20273;-68
2021/07/31 03:46:51;;;;;;;5.23;2.83;;;19.30;99.90;;;;;;5093506;28;20169;-68
2021/07/31 03:49:16;;;;;;;3.93;3.00;;;19.20;99.90;;;;;;5093659;28;20170;-69
2021/07/31 03:51:42;;;;;;;3.30;2.97;;;19.10;99.90;;;;;;5092605;28;20234;-68
2021/07/31 03:54:07;;;;;;;6.60;3.03;;;19.20;99.90;;;;;;5093512;28;20247;-68
2021/07/31 03:56:33;;;;;;;2.77;2.57;;;19.20;99.90;;;;;;5093315;28;20174;-69
2021/07/31 03:58:59;;;;;;;4.20;3.20;;;19.10;99.90;;;;;;5093237;28;20208;-68
2021/07/31 04:01:26;;;;;;;2.67;2.47;;;19.10;99.90;;;;;;5093086;28;20202;-68
2021/07/31 04:03:52;;;;;;;3.37;2.93;;;19.10;99.90;;;;;;5092112;28;20200;-68
2021/07/31 04:06:17;;;;;;;3.83;2.70;;;19.00;99.90;;;;;;5093302;28;20415;-68
2021/07/31 04:08:43;;;;;;;2.67;2.47;;;18.90;99.90;;;;;;5093180;28;20402;-69
2021/07/31 04:11:09;;;;;;;2.80;2.60;;;19.00;99.90;;;;;;5092735;28;20201;-69
2021/07/31 04:13:34;;;;;;;3.40;2.57;;;18.90;99.90;;;;;;5093009;28;20507;-69
2021/07/31 04:16:00;;;;;;;4.60;2.47;;;18.90;99.90;;;;;;5092993;28;20220;-68
2021/07/31 04:18:25;;;;;;;3.13;2.83;;;19.00;99.90;;;;;;5092964;28;20166;-68
2021/07/31 04:20:50;;;;;;;4.00;2.53;;;18.90;99.90;;;;;;5092746;28;20766;-68
2021/07/31 04:23:17;;;;;;;3.13;2.50;;;18.90;99.90;;;;;;5093228;28;20538;-68
2021/07/31 04:25:42;;;;;;;3.47;2.83;;;18.90;99.90;;;;;;5093060;28;20164;-68
2021/07/31 04:28:08;;;;;;;2.10;2.00;;;19.00;99.90;;;;;;5092835;28;20434;-68
2021/07/31 04:30:36;;;;;;;2.63;2.40;;;19.00;99.90;;;;;;5091414;28;20193;-68
2021/07/31 04:33:02;;;;;;;2.30;2.10;;;18.90;99.90;;;;;;5092755;28;20264;-68
2021/07/31 04:35:28;;;;;;;2.10;2.00;;;18.90;99.90;;;;;;5092663;28;20431;-69
2021/07/31 04:37:53;;;;;;;2.87;2.03;;;19.00;99.90;;;;;;5092581;28;20222;-69
2021/07/31 04:40:19;;;;;;;3.13;2.10;;;18.90;99.90;;;;;;5092310;28;20207;-68
2021/07/31 04:42:44;;;;;;;2.33;2.07;;;19.00;99.90;;;;;;5092113;28;20559;-69
2021/07/31 04:45:10;;;;;;;3.60;2.33;;;19.00;99.90;;;;;;5092530;28;20595;-69
2021/07/31 04:47:39;;;;;;;2.37;2.17;;;19.00;99.90;;;;;;5092337;28;20174;-69
2021/07/31 04:50:06;;;;;;;2.40;1.70;;;19.00;99.90;;;;;;5092455;28;20202;-69
2021/07/31 04:52:31;;;;;;;3.83;2.03;;;19.00;99.90;;;;;;5092254;28;20408;-69
2021/07/31 04:54:57;;;;;;;2.27;1.97;;;19.00;99.90;;;;;;5092014;28;20430;-69
2021/07/31 04:57:22;;;;;;;3.50;1.97;;;19.10;99.90;;;;;;5092146;28;20174;-69
2021/07/31 04:59:48;;;;;;;1.83;1.73;;;19.10;99.90;;;;;;5092252;28;20209;-69
2021/07/31 05:02:13;;;;;;;2.57;2.10;;;19.20;99.90;;;;;;5092146;28;20257;-69
2021/07/31 05:04:39;;;;;;;2.20;2.00;;;19.30;99.90;;;;;;5092016;28;20240;-69
2021/07/31 05:07:04;;;;;;;2.00;1.80;;;19.20;99.90;;;;;;5092411;28;20170;-68
2021/07/31 05:09:29;;;;;;;2.07;1.90;;;19.30;99.90;;;;;;5091973;28;20652;-69
2021/07/31 05:11:55;;;;;;;2.83;1.60;;;19.30;99.90;;;;;;5091924;28;20172;-69
2021/07/31 05:14:20;;;;;;;2.57;2.03;;;19.40;99.90;;;;;;5091997;28;20253;-69
2021/07/31 05:16:46;;;;;;;2.80;1.87;;;19.90;99.90;;;;;;5091937;28;20222;-69
2021/07/31 05:19:11;;;;;;;1.70;1.43;;;20.60;99.90;;;;;;5091816;28;20250;-69
2021/07/31 05:21:37;;;;;;;2.50;1.37;;;20.60;99.90;;;;;;5091124;28;20205;-69
2021/07/31 05:24:04;;;;;;;2.43;1.67;;;21.40;99.90;;;;;;5092079;28;20220;-69
2021/07/31 05:26:29;;;;;;;2.60;1.53;;;21.40;99.90;;;;;;5091957;28;20177;-69
2021/07/31 05:28:55;;;;;;;1.90;1.43;;;21.50;99.90;;;;;;5091741;28;20404;-70
2021/07/31 05:31:21;;;;;;;1.50;1.40;;;21.90;99.90;;;;;;5090552;28;20200;-70
2021/07/31 05:33:47;;;;;;;2.53;1.50;;;21.90;99.90;;;;;;5091916;28;20207;-69
2021/07/31 05:36:12;;;;;;;2.27;1.47;;;21.60;99.90;;;;;;5091718;28;20439;-70
2021/07/31 05:38:38;;;;;;;1.30;1.20;;;21.60;99.90;;;;;;5091523;28;20178;-69
2021/07/31 05:41:03;;;;;;;2.10;1.13;;;21.70;99.90;;;;;;5091445;28;20207;-70
2021/07/31 05:43:28;;;;;;;1.57;1.30;;;22.30;99.90;;;;;;5091982;28;20669;-70
2021/07/31 05:45:54;;;;;;;2.27;1.40;;;22.10;99.90;;;;;;5091577;28;20307;-70
2021/07/31 05:48:19;;;;;;;2.23;1.47;;;22.20;99.90;;;;;;5091794;28;20180;-70
2021/07/31 05:50:45;;;;;;;3.53;1.53;;;22.20;99.90;;;;;;5091553;28;20204;-70
2021/07/31 05:53:10;;;;;;;2.93;1.43;;;23.60;99.90;;;;;;5091802;28;20200;-69
2021/07/31 05:55:36;;;;;;;2.30;1.33;;;22.70;99.90;;;;;;5091751;28;20177;-70
2021/07/31 05:58:02;;;;;;;2.90;1.60;;;24.00;99.90;;;;;;5091700;28;20177;-68
2021/07/31 06:00:27;;;;;;;1.90;1.80;;;25.20;99.90;;;;;;5091546;28;20461;-67
2021/07/31 06:02:53;;;;;;;2.43;1.33;;;24.20;99.90;;;;;;5091394;28;20168;-69
2021/07/31 06:05:18;;;;;;;1.60;1.40;;;24.20;99.90;;;;;;5091743;28;20547;-70
2021/07/31 06:07:44;;;;;;;4.07;1.83;;;23.00;99.90;;;;;;5091275;28;20198;-69
2021/07/31 06:10:09;;;;;;;2.67;1.60;;;24.00;99.90;;;;;;5091516;28;20190;-68
2021/07/31 06:12:35;;;;;;;2.30;1.50;;;23.60;99.90;;;;;;5091357;28;20198;-69
2021/07/31 06:15:01;;;;;;;2.20;1.43;;;23.50;99.90;;;;;;5091430;28;20165;-68
2021/07/31 06:17:26;;;;;;;1.83;1.40;;;23.30;99.90;;;;;;5091286;28;20173;-68
2021/07/31 06:19:52;;;;;;;2.37;1.50;;;25.10;99.90;;;;;;5091298;28;20276;-68
2021/07/31 06:22:17;;;;;;;2.70;1.27;;;25.20;97.10;;;;;;5091325;28;20169;-69
2021/07/31 06:24:43;;;;;;;2.87;1.20;;;25.50;97.20;;;;;;5091150;28;20253;-68
2021/07/31 06:27:08;;;;;;;3.20;1.37;;;25.50;98.00;;;;;;5091437;28;20181;-68
2021/07/31 06:29:34;;;;;;;2.50;1.20;;;24.20;98.00;;;;;;5091140;28;20165;-68
2021/07/31 06:32:01;;;;;;;2.83;1.30;;;25.00;97.30;;;;;;5091152;28;20758;-69
2021/07/31 06:34:27;;;;;;;2.63;1.70;;;25.20;97.50;;;;;;5094352;28;20169;-68
2021/07/31 06:36:52;;;;;;;1.80;1.30;;;25.10;96.60;;;;;;5094778;28;20817;-68
2021/07/31 06:39:18;;;;;;;2.80;1.60;;;26.30;96.00;;;;;;5093375;28;20174;-68
2021/07/31 06:41:43;;;;;;;5.43;1.37;;;27.50;93.10;;;;;;5094720;28;20205;-68
2021/07/31 06:44:08;;;;;;;3.47;1.17;;;27.30;92.80;;;;;;5094757;28;20551;-68
2021/07/31 06:46:34;;;;;;;2.67;1.20;;;28.00;90.90;;;;;;5094548;28;20172;-69
2021/07/31 06:48:59;;;;;;;1.87;1.00;;;27.90;89.90;;;;;;5094686;28;20566;-70
2021/07/31 06:51:25;;;;;;;2.80;1.40;;;26.20;92.00;;;;;;5094389;28;20192;-68
2021/07/31 06:53:51;;;;;;;1.93;1.00;;;27.60;91.70;;;;;;5094378;28;20165;-68
2021/07/31 06:56:18;;;;;;;1.73;0.90;;;28.10;89.50;;;;;;5094550;28;20541;-70
2021/07/31 06:58:44;;;;;;;2.07;1.00;;;27.80;87.10;;;;;;5094336;28;20419;-70
2021/07/31 07:01:11;;;;;;;2.27;1.00;;;26.20;89.70;;;;;;5094258;28;20455;-68
2021/07/31 07:03:37;;;;;;;2.40;1.07;;;26.30;90.70;;;;;;5094333;28;20430;-72
2021/07/31 07:06:04;;;;;;;1.50;1.10;;;26.90;90.00;;;;;;5094974;28;20415;-69
2021/07/31 07:08:29;;;;;;;3.10;1.20;;;27.20;91.20;;;;;;5094039;28;20435;-68
2021/07/31 07:10:55;;;;;;;4.70;1.53;;;29.00;86.80;;;;;;5094062;28;20980;-68
2021/07/31 07:13:20;;;;;;;3.43;1.20;;;27.20;86.60;;;;;;5091677;28;20173;-70
2021/07/31 07:15:46;;;;;;;2.87;1.23;;;26.40;87.60;;;;;;5099768;28;20188;-68
2021/07/31 07:18:11;;;;;;;2.57;1.10;;;27.10;89.00;;;;;;5086341;28;20176;-68
2021/07/31 07:20:37;;;;;;;1.00;0.90;;;27.70;87.40;;;;;;5102125;28;20201;-69
2021/07/31 07:23:02;;;;;;;3.43;1.40;;;27.20;87.30;;;;;;5092754;28;20161;-68
2021/07/31 07:25:27;;;;;;;2.03;1.23;;;27.90;88.30;;;;;;5092857;28;20265;-68
2021/07/31 07:27:53;;;;;;;2.97;1.30;;;27.20;87.00;;;;;;5106787;28;20165;-68
2021/07/31 07:30:19;;;;;;;2.80;1.50;;;27.00;88.70;;;;;;5106110;28;20200;-68
2021/07/31 07:32:44;;;;;;;4.30;1.20;;;27.10;84.80;;;;;;5093708;28;20252;-68
2021/07/31 07:35:10;;;;;;;3.00;1.17;;;26.60;87.60;;;;;;5094479;28;20580;-71
2021/07/31 07:37:36;;;;;;;4.23;1.23;;;26.60;87.30;;;;;;5093781;28;20166;-69
2021/07/31 07:40:02;;;;;;;4.67;1.77;;;27.10;88.10;;;;;;5093597;28;20193;-68
2021/07/31 07:42:28;;;;;;;1.70;1.20;;;27.40;89.80;;;;;;5093633;28;20170;-69
2021/07/31 07:44:53;;;;;;;1.50;1.20;;;27.70;84.80;;;;;;5105461;28;20777;-68
2021/07/31 07:47:18;;;;;;;1.30;0.90;;;28.10;86.10;;;;;;5105924;28;20169;-68
2021/07/31 07:49:44;;;;;;;2.00;1.07;;;28.70;82.80;;;;;;5093560;28;20221;-68
2021/07/31 07:52:10;;;;;;;2.20;1.50;;;28.10;82.50;;;;;;5093605;28;20169;-70
2021/07/31 07:54:35;;;;;;;3.13;1.20;;;27.80;82.70;;;;;;5093430;28;20169;-68
2021/07/31 07:57:04;;;;;;;1.77;1.20;;;28.20;82.50;;;;;;5093372;28;20162;-70
2021/07/31 07:59:30;;;;;;;2.73;1.20;;;27.90;81.00;;;;;;5092888;28;20248;-71
2021/07/31 08:01:55;;;;;;;2.77;1.30;;;28.00;80.00;;;;;;5073254;28;20503;-68
2021/07/31 08:04:21;;;;;;;1.47;1.13;;;27.80;83.40;;;;;;5073065;28;20182;-71
2021/07/31 08:06:46;;;;;;;3.17;1.73;;;27.60;81.90;;;;;;5092842;28;20191;-68
2021/07/31 08:09:12;;;;;;;1.80;1.30;;;29.50;78.10;;;;;;5093328;28;20197;-68
2021/07/31 08:11:42;;;;;;;2.30;1.60;;;29.50;78.90;;;;;;5092773;28;20193;-69
2021/07/31 08:14:08;;;;;;;3.70;1.70;;;28.30;77.80;;;;;;5093371;28;20535;-69
2021/07/31 08:16:33;;;;;;;2.33;1.50;;;28.90;80.10;;;;;;5093055;28;20406;-68
2021/07/31 08:18:59;;;;;;;2.13;1.43;;;27.80;78.50;;;;;;5084663;28;20177;-68
2021/07/31 08:21:24;;;;;;;1.50;1.40;;;27.40;81.00;;;;;;5092464;28;20655;-68
2021/07/31 08:23:50;;;;;;;3.70;2.10;;;26.00;81.20;;;;;;5093048;28;20170;-68
2021/07/31 08:26:15;;;;;;;2.80;1.20;;;25.90;82.30;;;;;;5093016;28;20158;-68
2021/07/31 08:28:42;;;;;;;1.40;1.10;;;26.10;79.70;;;;;;5093222;28;20219;-69
2021/07/31 08:31:09;;;;;;;2.30;2.10;;;25.50;82.80;;;;;;5092757;28;20189;-69
2021/07/31 08:33:35;;;;;;;2.60;1.97;;;26.20;80.80;;;;;;5092882;28;20482;-69
2021/07/31 08:36:01;;;;;;;6.47;1.67;;;27.00;76.30;;;;;;5092875;28;21100;-69
2021/07/31 08:38:26;;;;;;;4.80;1.67;;;26.30;81.50;;;;;;5092584;28;20415;-68
2021/07/31 08:40:52;;;;;;;3.13;1.73;;;26.70;79.80;;;;;;5081165;28;20293;-69
2021/07/31 08:43:23;;;;;;;2.53;1.37;;;27.70;78.30;;;;;;5072702;28;20170;-69
2021/07/31 08:45:52;;;;;;;2.70;1.90;;;28.10;77.50;;;;;;5055317;28;20162;-68
2021/07/31 08:48:24;;;;;;;2.83;1.27;;;28.70;75.70;;;;;;5079502;28;20400;-70
2021/07/31 08:50:53;;;;;;;2.10;1.40;;;27.40;74.20;;;;;;5092364;28;20502;-69
2021/07/31 08:53:24;;;;;;;1.40;1.30;;;27.40;78.30;;;;;;5092520;28;20473;-70
2021/07/31 08:55:49;;;;;;;1.70;1.37;;;27.90;75.90;;;;;;5090177;28;20415;-68
2021/07/31 08:58:15;;;;;;;6.03;1.80;;;26.90;75.20;;;;;;5091784;28;20715;-68
2021/07/31 09:00:40;;;;;;;4.50;2.23;;;25.70;79.40;;;;;;5092192;28;20197;-68
2021/07/31 09:03:06;;;;;;;2.37;1.60;;;26.30;79.40;;;;;;5090731;28;20193;-69
2021/07/31 09:05:34;;;;;;;2.07;1.30;;;26.80;77.60;;;;;;5092327;28;20173;-69
2021/07/31 09:08:00;;;;;;;2.97;1.37;;;26.00;77.80;;;;;;5077641;28;20186;-69
2021/07/31 09:10:26;;;;;;;2.73;1.80;;;24.70;80.40;;;;;;5070476;28;20429;-68
2021/07/31 09:13:00;;;;;;;2.10;1.60;;;24.30;84.10;;;;;;5070695;28;20461;-67
2021/07/31 09:15:38;;;;;;;3.20;1.60;;;25.10;84.40;;;;;;5082506;28;20439;-68
2021/07/31 09:18:25;;;;;;;3.47;1.40;;;25.90;81.60;;;;;;5086585;28;20847;-68
2021/07/31 09:21:16;;;;;;;2.60;1.43;;;25.10;83.30;;;;;;5109830;28;20469;-68
2021/07/31 09:23:50;;;;;;;2.37;1.50;;;25.10;83.20;;;;;;5091827;28;20400;-68
2021/07/31 09:26:31;;;;;;;1.40;1.13;;;26.00;83.60;;;;;;5092087;28;20418;-68
2021/07/31 09:29:03;;;;;;;5.47;1.40;;;26.60;80.50;;;;;;5092055;28;20399;-68
2021/07/31 09:31:30;;;;;;;1.30;1.20;;;26.70;82.60;;;;;;5091797;28;20945;-69
2021/07/31 09:33:59;;;;;;;1.47;1.10;;;27.40;80.40;;;;;;5091762;28;20408;-69
2021/07/31 09:36:35;;;;;;;1.73;1.20;;;26.50;84.40;;;;;;5091846;28;20404;-68
2021/07/31 09:39:00;;;;;;;2.53;1.20;;;26.00;82.30;;;;;;5091873;28;20732;-68
2021/07/31 09:41:29;;;;;;;2.50;1.50;;;26.20;83.10;;;;;;5091624;28;20853;-68
2021/07/31 09:44:12;;;;;;;2.43;1.57;;;25.40;82.80;;;;;;5091876;28;20160;-70
2021/07/31 09:46:42;;;;;;;2.33;1.43;;;25.60;86.00;;;;;;5091167;28;20456;-69
2021/07/31 09:49:09;;;;;;;1.77;1.37;;;25.70;83.10;;;;;;5091635;28;20404;-68
2021/07/31 09:51:37;;;;;;;3.83;1.50;;;25.60;83.90;;;;;;5091596;28;20431;-68
2021/07/31 09:54:06;;;;;;;2.43;1.10;;;26.00;82.60;;;;;;5091638;28;20446;-69
2021/07/31 09:56:39;;;;;;;2.40;1.30;;;25.30;82.80;;;;;;5091760;28;20419;-69
2021/07/31 09:59:07;;;;;;;4.23;1.10;;;26.50;81.30;;;;;;5071534;28;20412;-68
2021/07/31 10:01:36;;;;;;;2.50;1.40;;;25.50;82.80;;;;;;5070299;28;20478;-67
2021/07/31 10:04:02;;;;;;;4.63;1.57;;;25.00;84.70;;;;;;5073661;28;20461;-67
2021/07/31 10:06:31;;;;;;;2.70;1.33;;;24.90;82.90;;;;;;5091980;28;20411;-68
2021/07/31 10:09:02;;;;;;;1.90;1.50;;;25.00;85.90;;;;;;5094951;28;20485;-67
2021/07/31 10:11:28;;;;;;;1.43;1.30;;;25.10;85.00;;;;;;5096084;28;20426;-69
2021/07/31 10:13:55;;;;;;;3.03;1.30;;;26.00;81.70;;;;;;5096090;28;20445;-68
2021/07/31 10:16:21;;;;;;;1.57;1.10;;;26.10;81.20;;;;;;5080021;28;20425;-67
2021/07/31 10:18:56;;;;;;;2.13;1.20;;;25.30;82.30;;;;;;5085201;28;20775;-68
2021/07/31 10:21:23;;;;;;;1.63;1.30;;;25.70;83.70;;;;;;5095081;28;20197;-67
2021/07/31 10:24:00;;;;;;;3.13;1.33;;;25.50;82.60;;;;;;5095262;28;20900;-68
2021/07/31 10:26:27;;;;;;;1.23;1.13;;;25.50;83.80;;;;;;5094932;28;20405;-68
2021/07/31 10:28:54;;;;;;;3.03;1.20;;;24.90;84.00;;;;;;5095145;28;20394;-68
2021/07/31 10:31:31;;;;;;;4.13;1.20;;;25.10;85.00;;;;;;5077735;28;20479;-68
2021/07/31 10:33:56;;;;;;;3.67;1.30;;;25.60;82.80;;;;;;5074800;28;20400;-68
2021/07/31 10:36:36;;;;;;;4.93;2.00;;;25.10;85.20;;;;;;5074698;28;20905;-68
2021/07/31 10:39:39;;;;;;;3.17;1.43;;;25.20;82.30;;;;;;5075021;28;20290;-69
2021/07/31 10:42:05;;;;;;;1.87;1.50;;;25.50;82.90;;;;;;5074576;28;20843;-68
2021/07/31 10:44:30;;;;;;;4.20;1.40;;;25.40;85.90;;;;;;5074726;28;20485;-69
2021/07/31 10:47:20;;;;;;;2.40;1.57;;;25.90;84.10;;;;;;5074530;28;20249;-69
2021/07/31 10:49:46;;;;;;;2.83;2.00;;;25.80;83.50;;;;;;5074641;28;20195;-70
2021/07/31 10:52:50;;;;;;;4.23;1.47;;;24.70;84.90;;;;;;5074768;28;20396;-70
2021/07/31 10:55:20;;;;;;;4.30;1.30;;;24.40;86.30;;;;;;5088386;28;20760;-70
2021/07/31 10:57:54;;;;;;;4.23;3.83;;;24.40;87.00;;;;;;5095186;28;20458;-69
2021/07/31 11:00:23;;;;;;;3.10;2.37;;;24.90;86.00;;;;;;5094626;28;20531;-69
2021/07/31 11:02:49;;;;;;;2.43;1.60;;;24.40;87.80;;;;;;5095045;28;20419;-69
2021/07/31 11:05:14;;;;;;;2.60;2.33;;;24.50;87.20;;;;;;5094313;28;20416;-70
2021/07/31 11:07:58;;;;;;;2.97;2.33;;;24.30;87.10;;;;;;5095192;28;20174;-70
2021/07/31 11:10:44;;;;;;;4.20;2.07;;;24.40;88.50;;;;;;5094912;28;20193;-68
2021/07/31 11:13:32;;;;;;;2.17;1.27;;;23.90;87.30;;;;;;5094584;28;20411;-69
2021/07/31 11:16:04;;;;;;;6.17;2.17;;;23.80;87.90;;;;;;5092506;28;20432;-69
2021/07/31 11:18:36;;;;;;;1.53;1.03;;;24.40;88.20;;;;;;5091033;28;20423;-69
2021/07/31 11:21:10;;;;;;;4.53;2.23;;;24.20;88.40;;;;;;5093848;28;20447;-69
2021/07/31 11:23:49;;;;;;;3.80;1.20;;;24.90;87.80;;;;;;5094153;28;20415;-69
2021/07/31 11:26:30;;;;;;;2.30;1.60;;;25.40;86.00;;;;;;5092745;28;20432;-70
2021/07/31 11:28:56;;;;;;;2.47;1.30;;;24.60;85.30;;;;;;5093394;28;20408;-70
2021/07/31 11:31:21;;;;;;;1.00;0.90;;;24.90;86.00;;;;;;5093720;28;20431;-70
2021/07/31 11:34:01;;;;;;;3.80;1.30;;;24.10;84.70;;;;;;5092658;28;20310;-70
2021/07/31 11:36:28;;;;;;;3.53;1.50;;;23.60;86.80;;;;;;5093841;28;20255;-70
2021/07/31 11:38:53;;;;;;;3.90;1.50;;;24.20;86.90;;;;;;5093134;28;20406;-70
2021/07/31 11:41:19;;;;;;;3.87;1.50;;;24.00;86.60;;;;;;5091251;28;20474;-70
2021/07/31 11:43:47;;;;;;;4.97;2.00;;;24.30;85.60;;;;;;5093663;28;20176;-69
2021/07/31 11:46:26;;;;;;;8.57;5.17;;;24.00;86.60;;;;;;5093638;28;20536;-69
2021/07/31 11:48:52;;;;;;;5.17;3.17;;;24.50;86.20;;;;;;5093511;28;20400;-70
2021/07/31 11:51:18;;;;;;;15.93;7.90;;;23.80;87.50;;;;;;5093370;28;20782;-69
2021/07/31 11:53:43;;;;;;;14.10;11.00;;;23.90;88.90;;;;;;5093544;28;20501;-69
2021/07/31 11:56:15;;;;;;;5.30;3.07;;;24.10;86.90;;;;;;5093599;28;20191;-70
2021/07/31 11:58:42;;;;;;;5.00;4.50;;;24.10;87.50;;;;;;5084928;28;20184;-70
2021/07/31 12:01:08;;;;;;;5.40;2.27;;;24.00;87.90;;;;;;5093379;28;20465;-69
2021/07/31 12:03:44;;;;;;;2.53;1.60;;;24.10;88.40;;;;;;5093363;28;20419;-69
2021/07/31 12:06:30;;;;;;;6.70;2.60;;;24.40;87.30;;;;;;5093070;28;20912;-69
2021/07/31 12:09:01;;;;;;;6.57;5.50;;;24.50;87.70;;;;;;5075936;28;20510;-69
2021/07/31 12:11:45;;;;;;;3.83;2.30;;;24.00;88.30;;;;;;5071572;28;20436;-69
2021/07/31 12:14:30;;;;;;;3.10;1.30;;;24.20;87.10;;;;;;5073365;28;20521;-70
2021/07/31 12:17:14;;;;;;;3.60;1.70;;;24.00;86.40;;;;;;5092833;28;20909;-69
2021/07/31 12:19:40;;;;;;;5.30;2.30;;;23.90;87.50;;;;;;5092754;28;20418;-70
2021/07/31 12:22:07;;;;;;;6.03;3.27;;;24.10;86.70;;;;;;5092181;28;20556;-70
2021/07/31 12:24:33;;;;;;;2.87;1.30;;;24.10;86.60;;;;;;5084270;28;20412;-70
2021/07/31 12:26:58;;;;;;;3.33;1.23;;;23.50;83.40;;;;;;5072452;28;20411;-70
2021/07/31 12:29:35;;;;;;;9.13;7.23;;;23.40;84.90;;;;;;5071361;28;20180;-69
2021/07/31 12:32:22;;;;;;;2.60;1.00;;;23.70;85.90;;;;;;5072155;28;20171;-69
2021/07/31 12:34:49;;;;;;;51.30;44.63;;;23.60;85.20;;;;;;5072509;28;20532;-70
2021/07/31 12:37:14;;;;;;;5.20;4.70;;;24.10;87.50;;;;;;5078409;28;20408;-68
2021/07/31 12:39:40;;;;;;;2.40;1.30;;;24.30;84.20;;;;;;5091173;28;20817;-69
2021/07/31 12:42:05;;;;;;;4.70;4.03;;;24.50;84.80;;;;;;5092907;28;20166;-70
2021/07/31 12:44:31;;;;;;;5.67;5.07;;;24.70;85.50;;;;;;5092880;28;20181;-70
2021/07/31 12:46:57;;;;;;;13.13;3.30;;;24.70;83.20;;;;;;5091382;28;20421;-69